Terminal Aerodrome Forecast
Issued by NWS Bismarck, ND

Home | Current Version | Previous Version | Graphics & Text | Print | Product List | Glossary On
Versions: 1 2 3 4 5 6 7 8 9 10 11 12 13 14 15 16
000
FTUS43 KBIS 160100 AAA
TAFISN
TAF AMD
KISN 160118Z 1601/1624 30007KT P6SM OVC023
     FM160600 33005KT P6SM OVC020
     FM161400 13005KT P6SM SCT020=

USA.gov is the U.S. government's official web portal to all federal, state and local government web resources and services.